Home > Products > Valid Products > TAF

000
FTUS42 KJAX 292323
TAFJAX
TAF
KJAX 292323Z 3000/3024 07007KT P6SM FEW030 BKN070
     FM300700 00000KT P6SM SCT020 SCT100
     FM301400 09009KT P6SM VCSH BKN040
     FM301800 09012G20KT P6SM BKN050 BKN250=



000
FTUS42 KJAX 292323
TAFCRG
TAF
KCRG 292323Z 3000/3024 07007KT P6SM FEW030 BKN070
     FM300700 00000KT P6SM SCT020 SCT100
     FM301400 09009KT P6SM VCSH BKN040
     FM301800 09012G20KT P6SM BKN050 BKN250=



000
FTUS42 KJAX 292323
TAFGNV
TAF
KGNV 292323Z 3000/3024 07007KT P6SM SCT050
     FM301000 00000KT 4SM BR SCT020 SCT100
     FM301230 07004KT P6SM SCT025
     FM301600 08007KT P6SM VCSH BKN040
     FM301900 09009KT P6SM VCTS BKN050CB BKN250=



000
FTUS42 KJAX 292323
TAFSSI
TAF
KSSI 292323Z 3000/3024 07009KT P6SM VCSH SCT030 BKN070
     FM301300 08011G16KT P6SM VCSH BKN030 BKN050
     FM301700 09014G21KT P6SM SCT035 BKN060 BKN250=



000
FTUS42 KJAX 292122 AAB
TAFSSI
TAF AMD
KSSI 292122Z 2921/3018 07014G20KT P6SM VCSH BKN050 OVC080
     FM292200 07014G20KT 5SM -SHRA BKN030 OVC050
     FM292330 07010G18KT P6SM VCSH SCT030 BKN080
     FM300100 07009KT P6SM VCSH SCT030 BKN070
     FM300900 06008KT P6SM VCSH BKN020 BKN060
     FM301300 08011G16KT P6SM VCSH BKN030 BKN050
     FM301700 09014G21KT P6SM VCSH SCT035 BKN060 BKN250=



000
FTUS42 KJAX 292005 AAB
TAFJAX
TAF AMD
KJAX 292005Z 2920/3018 08011G18KT P6SM VCSH BKN040
     FM300100 07007KT P6SM FEW035 SCT070
     FM300900 06005KT P6SM VCSH SCT020 BKN060
     FM301400 09009KT P6SM VCSH BKN030 BKN050
     FM301700 09012G20KT P6SM VCSH SCT035 BKN060 BKN250=



000
FTUS42 KJAX 292004 AAA
TAFCRG
TAF AMD
KCRG 292004Z 2920/3018 08009G16KT P6SM VCSH BKN040
     FM300000 07009KT P6SM SCT035 SCT070
     FM300700 06007KT P6SM VCSH SCT020 BKN060
     FM301300 09010G15KT P6SM VCSH BKN030 BKN050
     FM301700 09013G21KT P6SM VCSH SCT035 BKN060 BKN250=



000
FTUS42 KJAX 292003 AAA
TAFSSI
TAF AMD
KSSI 292003Z 2920/3018 08014G20KT P6SM VCSH BKN050 OVC080
     FM300100 07009KT P6SM VCSH SCT030 BKN070
     FM300900 06008KT P6SM VCSH BKN020 BKN060
     FM301300 08011G16KT P6SM VCSH BKN030 BKN050
     FM301700 09014G21KT P6SM VCSH SCT035 BKN060 BKN250=



000
FTUS42 KJAX 291742
TAFJAX
TAF
KJAX 291742Z 2918/3018 08011G18KT P6SM SCT040
     FM300100 07007KT P6SM FEW035 SCT070
     FM300900 06005KT P6SM VCSH SCT020 BKN060
     FM301400 09009KT P6SM VCSH BKN030 BKN050
     FM301700 09012G20KT P6SM VCSH SCT035 BKN060 BKN250=



000
FTUS42 KJAX 291742
TAFSSI
TAF
KSSI 291742Z 2918/3018 07013G20KT P6SM SCT040
     FM300100 07009KT P6SM VCSH SCT030 BKN070
     FM300900 06008KT P6SM VCSH BKN020 BKN060
     FM301300 08011G16KT P6SM VCSH BKN030 BKN050
     FM301700 09014G21KT P6SM VCSH SCT035 BKN060 BKN250=



000
FTUS42 KJAX 291742
TAFCRG
TAF
KCRG 291742Z 2918/3018 08012G19KT P6SM SCT040
     FM300000 07009KT P6SM SCT035 SCT070
     FM300700 06007KT P6SM VCSH SCT020 BKN060
     FM301300 09010G15KT P6SM VCSH BKN030 BKN050
     FM301700 09013G21KT P6SM VCSH SCT035 BKN060 BKN250=



000
FTUS42 KJAX 291742
TAFGNV
TAF
KGNV 291742Z 2918/3018 08009KT P6SM SCT040
     FM300000 07006KT P6SM FEW035 SCT070
     FM300600 00000KT P6SM FEW070
     FM301400 07006KT P6SM SCT040
     FM301700 08009KT P6SM VCSH SCT035 BKN070=



000
FTUS42 KJAX 291453 AAA
TAFGNV
TAF AMD
KGNV 291453Z 2915/3012 08010G15KT P6SM SCT040
     FM300000 07006KT P6SM FEW035 SCT070
     FM300600 00000KT P6SM FEW070=



000
FTUS42 KJAX 291409 AAA
TAFSSI
TAF AMD
KSSI 291409Z 2914/3012 08013G20KT P6SM SCT040
     FM300100 07009KT P6SM FEW035 SCT070
     FM300900 05007KT P6SM VCSH SCT035 BKN070=



000
FTUS42 KJAX 291409 AAA
TAFSSI
TAF AMD
KSSI 291409Z 2914/3012 08013G20KT P6SM SCT040
     FM300100 07009KT P6SM FEW035 SCT070
     FM300900 05007KT P6SM VCSH SCT035 BKN070=



000
FTUS42 KJAX 291359 AAA
TAFCRG
TAF AMD
KCRG 291359Z 2914/3012 08012G19KT P6SM SCT040
     FM300100 07008KT P6SM FEW035 SCT070
     FM300800 05006KT P6SM VCSH SCT025 BKN070=



000
FTUS42 KJAX 291359 AAA
TAFCRG
TAF AMD
KCRG 291359Z 2914/3012 08012G19KT P6SM SCT040
     FM300100 07008KT P6SM FEW035 SCT070
     FM300800 05006KT P6SM VCSH SCT025 BKN070=



000
FTUS42 KJAX 291350 AAA
TAFJAX
TAF AMD
KJAX 291350Z 2914/3012 08011G18KT P6SM SCT040
     FM300100 07007KT P6SM FEW035 SCT070
     FM300900 04004KT P6SM VCSH SCT025 BKN070=



000
FTUS42 KJAX 291121
TAFGNV
TAF
KGNV 291121Z 2912/3012 VRB03KT P6SM SCT250
      TEMPO 2912/2913 4SM BR
     FM291600 09009KT P6SM SCT040 SCT250
     FM300100 08004KT P6SM SCT250=



000
FTUS42 KJAX 291121
TAFJAX
TAF
KJAX 291121Z 2912/3012 VRB03KT P6SM FEW030 SCT250
     FM291600 08012KT P6SM SCT040 SCT250
     FM300200 VRB03KT P6SM SCT250=



000
FTUS42 KJAX 291121
TAFJAX
TAF
KJAX 291121Z 2912/3012 VRB03KT P6SM FEW030 SCT250
     FM291600 08012KT P6SM SCT040 SCT250
     FM300200 VRB03KT P6SM SCT250=



000
FTUS42 KJAX 291121
TAFGNV
TAF
KGNV 291121Z 2912/3012 VRB03KT P6SM SCT250
      TEMPO 2912/2913 4SM BR
     FM291600 09009KT P6SM SCT040 SCT250
     FM300100 08004KT P6SM SCT250=



000
FTUS42 KJAX 291121
TAFCRG
TAF
KCRG 291121Z 2912/3012 09004KT P6SM FEW040 SCT250
     FM291600 08012G18KT P6SM SCT040 SCT250
     FM300200 08005KT P6SM SCT250
     FM300900 VRB03KT P6SM SCT035 BKN150=



000
FTUS42 KJAX 291121
TAFSSI
TAF
KSSI 291121Z 2912/3012 10006KT P6SM FEW030 SCT250
     FM291600 09012KT P6SM SCT040 SCT250
     FM300200 10006KT P6SM SCT120=



000
FTUS42 KJAX 291121
TAFCRG
TAF
KCRG 291121Z 2912/3012 09004KT P6SM FEW040 SCT250
     FM291600 08012G18KT P6SM SCT040 SCT250
     FM300200 08005KT P6SM SCT250
     FM300900 VRB03KT P6SM SCT035 BKN150=



000
FTUS42 KJAX 291121
TAFSSI
TAF
KSSI 291121Z 2912/3012 10006KT P6SM FEW030 SCT250
     FM291600 09012KT P6SM SCT040 SCT250
     FM300200 10006KT P6SM SCT120=



000
FTUS42 KJAX 291009 AAA
TAFGNV
TAF AMD
KGNV 291009Z 2910/3006 VRB03KT P6SM SCT250
      TEMPO 2910/2912 4SM BR
     FM291600 09009KT P6SM SCT040 SCT250
     FM300100 08004KT P6SM SCT250=



000
FTUS42 KJAX 290521
TAFSSI
TAF
KSSI 290521Z 2906/3006 10006KT P6SM SCT250
     FM291600 09012KT P6SM SCT040 SCT250
     FM300200 10006KT P6SM SCT120=



000
FTUS42 KJAX 290521
TAFJAX
TAF
KJAX 290521Z 2906/3006 VRB03KT P6SM FEW015 SCT250
     FM291600 08011KT P6SM SCT040 SCT250
     FM300200 VRB03KT P6SM SCT250=



000
FTUS42 KJAX 290521
TAFCRG
TAF
KCRG 290521Z 2906/3006 09004KT P6SM FEW030 SCT250
     FM291600 08012G18KT P6SM SCT040 SCT250
     FM300200 08004KT P6SM SCT250=



000
FTUS42 KJAX 290521
TAFGNV
TAF
KGNV 290521Z 2906/3006 VRB03KT P6SM SCT250
     FM291600 09009KT P6SM SCT040 SCT250
     FM300100 08004KT P6SM SCT250=



000
FTUS42 KJAX 282326
TAFCRG
TAF
KCRG 282326Z 2900/2924 09009KT P6SM FEW030 SCT250
     FM290200 09005KT P6SM SCT250
     FM291400 08009G16KT P6SM SCT030 SCT250
     FM291700 08010G18KT P6SM SCT040 SCT250=



000
FTUS42 KJAX 282326
TAFCRG
TAF
KCRG 282326Z 2900/2924 09009KT P6SM FEW030 SCT250
     FM290200 09005KT P6SM SCT250
     FM291400 08009G16KT P6SM SCT030 SCT250
     FM291700 08010G18KT P6SM SCT040 SCT250=



000
FTUS42 KJAX 282326
TAFSSI
TAF
KSSI 282326Z 2900/2924 10008KT P6SM SCT250
     FM290400 10006KT P6SM SCT250
     FM291400 09009KT P6SM SCT030 SCT250=



000
FTUS42 KJAX 282326
TAFJAX
TAF
KJAX 282326Z 2900/2924 09008KT P6SM FEW050 SCT250
     FM290200 09003KT P6SM SCT250
     FM291400 08008KT P6SM SCT030 SCT250
     FM291700 08010G17KT P6SM SCT040 SCT250=



000
FTUS42 KJAX 282326
TAFGNV
TAF
KGNV 282326Z 2900/2924 10008KT P6SM SCT040 SCT250
     FM290200 09003KT P6SM SCT250
     FM291600 09009KT P6SM SCT040 SCT250=



000
FTUS42 KJAX 282326
TAFGNV
TAF
KGNV 282326Z 2900/2924 10008KT P6SM SCT040 SCT250
     FM290200 09003KT P6SM SCT250
     FM291600 09009KT P6SM SCT040 SCT250=



000
FTUS42 KJAX 282326
TAFSSI
TAF
KSSI 282326Z 2900/2924 10008KT P6SM SCT250
     FM290400 10006KT P6SM SCT250
     FM291400 09009KT P6SM SCT030 SCT250=



000
FTUS42 KJAX 282326
TAFJAX
TAF
KJAX 282326Z 2900/2924 09008KT P6SM FEW050 SCT250
     FM290200 09003KT P6SM SCT250
     FM291400 08008KT P6SM SCT030 SCT250
     FM291700 08010G17KT P6SM SCT040 SCT250=



000
FTUS42 KJAX 282320 AAA
TAFGNV
TAF AMD
KGNV 282320Z 2823/2918 10008KT P6SM SCT040 SCT250
     FM290200 09003KT P6SM SCT250
     FM291600 09009KT P6SM SCT040 SCT250=



000
FTUS42 KJAX 282320 AAA
TAFGNV
TAF AMD
KGNV 282320Z 2823/2918 10008KT P6SM SCT040 SCT250
     FM290200 09003KT P6SM SCT250
     FM291600 09009KT P6SM SCT040 SCT250=



000
FTUS42 KJAX 282305 AAA
TAFCRG
TAF AMD
KCRG 282305Z 2823/2918 08012KT P6SM FEW050 SCT250
     FM290200 09003KT P6SM SCT250
     FM291400 08009G16KT P6SM SCT030 SCT250
     FM291700 08010G18KT P6SM SCT040 SCT250=



000
FTUS42 KJAX 282305 AAA
TAFCRG
TAF AMD
KCRG 282305Z 2823/2918 08012KT P6SM FEW050 SCT250
     FM290200 09003KT P6SM SCT250
     FM291400 08009G16KT P6SM SCT030 SCT250
     FM291700 08010G18KT P6SM SCT040 SCT250=



000
FTUS42 KJAX 282303 AAB
TAFJAX
TAF AMD
KJAX 282303Z 2823/2918 08012KT P6SM FEW050 SCT250
     FM290200 09003KT P6SM SCT250
     FM291400 08008KT P6SM SCT030 SCT250
     FM291700 08010G17KT P6SM SCT040 SCT250=



000
FTUS42 KJAX 282303 AAB
TAFJAX
TAF AMD
KJAX 282303Z 2823/2918 08012KT P6SM FEW050 SCT250
     FM290200 09003KT P6SM SCT250
     FM291400 08008KT P6SM SCT030 SCT250
     FM291700 08010G17KT P6SM SCT040 SCT250=



000
FTUS42 KJAX 282249 AAA
TAFSSI
TAF AMD
KSSI 282249Z 2823/2918 10007KT P6SM SCT250
     FM290400 10006KT P6SM SCT250
     FM291400 09009KT P6SM SCT030 SCT250=



000
FTUS42 KJAX 282249 AAA
TAFSSI
TAF AMD
KSSI 282249Z 2823/2918 10007KT P6SM SCT250
     FM290400 10006KT P6SM SCT250
     FM291400 09009KT P6SM SCT030 SCT250=



000
FTUS42 KJAX 281721
TAFJAX
TAF
KJAX 281721Z 2818/2918 10012KT P6SM SCT040 BKN250
     FM290200 09003KT P6SM SCT250
     FM291500 08008KT P6SM SCT030 SCT250=



000
FTUS42 KJAX 281721
TAFJAX
TAF
KJAX 281721Z 2818/2918 10012KT P6SM SCT040 BKN250
     FM290200 09003KT P6SM SCT250
     FM291500 08008KT P6SM SCT030 SCT250=



000
FTUS42 KJAX 281721
TAFGNV
TAF
KGNV 281721Z 2818/2918 10010KT P6SM SCT040 BKN250
     FM290200 09003KT P6SM SCT250
     FM291500 09007KT P6SM SCT030 SCT250=



000
FTUS42 KJAX 281721
TAFCRG
TAF
KCRG 281721Z 2818/2918 10012KT P6SM SCT040 BKN250
     FM290200 09003KT P6SM SCT250
     FM291500 08009KT P6SM SCT030 SCT250=



000
FTUS42 KJAX 281721
TAFSSI
TAF
KSSI 281721Z 2818/2918 10012KT P6SM SCT040 BKN250
     FM290400 10006KT P6SM SCT250
     FM291400 09009KT P6SM SCT030 SCT250=



000
FTUS42 KJAX 281121
TAFGNV
TAF
KGNV 281121Z 2812/2912 VRB03KT P6SM BKN040
     FM281500 10008KT P6SM SCT040 BKN250
     FM290100 VRB03KT P6SM SCT250=



000
FTUS42 KJAX 281121
TAFJAX
TAF
KJAX 281121Z 2812/2912 VRB03KT P6SM SCT030 BKN250
     FM281500 10012KT P6SM SCT040 BKN250
     FM290200 VRB03KT P6SM SCT250=



000
FTUS42 KJAX 281121
TAFSSI
TAF
KSSI 281121Z 2812/2912 11005KT P6SM BKN250
     FM281500 11012KT P6SM FEW040 BKN250
     FM290200 10006KT P6SM SCT250=



000
FTUS42 KJAX 281121
TAFCRG
TAF
KCRG 281121Z 2812/2912 10004KT P6SM SCT035 BKN250
     FM281600 10012G18KT P6SM SCT040 BKN250
     FM290100 11005KT P6SM SCT250=



000
FTUS42 KJAX 281121
TAFSSI
TAF
KSSI 281121Z 2812/2912 11005KT P6SM BKN250
     FM281500 11012KT P6SM FEW040 BKN250
     FM290200 10006KT P6SM SCT250=



000
FTUS42 KJAX 281121
TAFJAX
TAF
KJAX 281121Z 2812/2912 VRB03KT P6SM SCT030 BKN250
     FM281500 10012KT P6SM SCT040 BKN250
     FM290200 VRB03KT P6SM SCT250=



000
FTUS42 KJAX 281121
TAFGNV
TAF
KGNV 281121Z 2812/2912 VRB03KT P6SM BKN040
     FM281500 10008KT P6SM SCT040 BKN250
     FM290100 VRB03KT P6SM SCT250=



000
FTUS42 KJAX 281121
TAFCRG
TAF
KCRG 281121Z 2812/2912 10004KT P6SM SCT035 BKN250
     FM281600 10012G18KT P6SM SCT040 BKN250
     FM290100 11005KT P6SM SCT250=



000
FTUS42 KJAX 280834 AAB
TAFJAX
TAF AMD
KJAX 280834Z 2809/2906 VRB03KT P6SM FEW040 BKN250
     FM281500 10012KT P6SM SCT040 BKN250
     FM290200 VRB03KT P6SM SCT250=



000
FTUS42 KJAX 280833 AAA
TAFGNV
TAF AMD
KGNV 280833Z 2809/2906 VRB03KT P6SM SCT040 BKN250
     FM281500 10008KT P6SM SCT040 BKN250
     FM290100 VRB03KT P6SM SCT250=



000
FTUS42 KJAX 280521
TAFGNV
TAF
KGNV 280521Z 2806/2906 09003KT P6SM BKN250
     FM281500 10008KT P6SM SCT040 BKN250
     FM290100 VRB03KT P6SM SCT250=



000
FTUS42 KJAX 280521
TAFCRG
TAF
KCRG 280521Z 2806/2906 11005KT P6SM BKN250
     FM281600 10012G18KT P6SM SCT040 BKN250
     FM290100 11005KT P6SM SCT250=



000
FTUS42 KJAX 280521
TAFSSI
TAF
KSSI 280521Z 2806/2906 11005KT P6SM BKN250
     FM281500 11012KT P6SM FEW040 BKN250
     FM290200 10006KT P6SM SCT250=



000
FTUS42 KJAX 280521
TAFJAX
TAF
KJAX 280521Z 2806/2906 VRB03KT P6SM BKN250
     FM281500 10012KT P6SM SCT040 BKN250
     FM290200 VRB03KT P6SM SCT250=



000
FTUS42 KJAX 280521
TAFGNV
TAF
KGNV 280521Z 2806/2906 09003KT P6SM BKN250
     FM281500 10008KT P6SM SCT040 BKN250
     FM290100 VRB03KT P6SM SCT250=



000
FTUS42 KJAX 280521
TAFSSI
TAF
KSSI 280521Z 2806/2906 11005KT P6SM BKN250
     FM281500 11012KT P6SM FEW040 BKN250
     FM290200 10006KT P6SM SCT250=



000
FTUS42 KJAX 280521
TAFJAX
TAF
KJAX 280521Z 2806/2906 VRB03KT P6SM BKN250
     FM281500 10012KT P6SM SCT040 BKN250
     FM290200 VRB03KT P6SM SCT250=



000
FTUS42 KJAX 280521
TAFCRG
TAF
KCRG 280521Z 2806/2906 11005KT P6SM BKN250
     FM281600 10012G18KT P6SM SCT040 BKN250
     FM290100 11005KT P6SM SCT250=



000
FTUS42 KJAX 272347
TAFJAX
TAF
KJAX 272347Z 2800/2824 09009KT P6SM SCT035 BKN250
     FM280200 10004KT P6SM SCT020 BKN250
     FM281500 10010G15KT P6SM SCT030 BKN250=



000
FTUS42 KJAX 272347
TAFSSI
TAF
KSSI 272347Z 2800/2824 11008KT P6SM FEW030 BKN250
     FM280300 11006KT P6SM FEW015 BKN250
     FM281500 11008G15KT P6SM FEW025 BKN250=



000
FTUS42 KJAX 272347
TAFGNV
TAF
KGNV 272347Z 2800/2824 11008KT P6SM SCT045 BKN250
     FM280200 09003KT P6SM SCT015 BKN250
     FM281500 10008KT P6SM SCT030 BKN250=



000
FTUS42 KJAX 272347
TAFCRG
TAF
KCRG 272347Z 2800/2824 10008KT P6SM SCT030 BKN250
     FM280200 10004KT P6SM SCT020 BKN250
     FM281500 10010G15KT P6SM SCT030 BKN250=



000
FTUS42 KJAX 272147 AAA
TAFJAX
TAF AMD
KJAX 272147Z 2722/2818 11013KT P6SM SCT040 BKN250
     FM280200 VRB02KT P6SM SCT015 SCT250
     FM281600 10010G15KT P6SM SCT040 BKN250=



000
FTUS42 KJAX 271737
TAFGNV
TAF
KGNV 271737Z 2718/2818 11008KT P6SM SCT045 BKN250
     FM280300 00000KT P6SM SCT015 SCT250
     FM281400 13008KT P6SM FEW025 SCT035=



000
FTUS42 KJAX 271737
TAFCRG
TAF
KCRG 271737Z 2718/2818 12010G16KT P6SM SCT035 BKN250
     FM272200 11008KT P6SM SCT035 SCT250
     FM280300 VRB02KT P6SM SCT015 SCT250
     FM281600 10010G15KT P6SM SCT040 BKN250=



000
FTUS42 KJAX 271737
TAFSSI
TAF
KSSI 271737Z 2718/2818 11012G18KT P6SM FEW035 SCT250
     FM280200 11004KT P6SM SCT015 SCT250
     FM281400 13008G15KT P6SM FEW025 SCT035=



000
FTUS42 KJAX 271737
TAFSSI
TAF
KSSI 271737Z 2718/2818 11012G18KT P6SM FEW035 SCT250
     FM280200 11004KT P6SM SCT015 SCT250
     FM281400 13008G15KT P6SM FEW025 SCT035=



000
FTUS42 KJAX 271737
TAFGNV
TAF
KGNV 271737Z 2718/2818 11008KT P6SM SCT045 BKN250
     FM280300 00000KT P6SM SCT015 SCT250
     FM281400 13008KT P6SM FEW025 SCT035=



000
FTUS42 KJAX 271737
TAFJAX
TAF
KJAX 271737Z 2718/2818 08009G14KT P6SM SCT040 BKN250
     FM272300 10008KT P6SM SCT035 SCT250
     FM280200 VRB02KT P6SM SCT015 SCT250
     FM281600 10010G15KT P6SM SCT040 BKN250=



000
FTUS42 KJAX 271737
TAFJAX
TAF
KJAX 271737Z 2718/2818 08009G14KT P6SM SCT040 BKN250
     FM272300 10008KT P6SM SCT035 SCT250
     FM280200 VRB02KT P6SM SCT015 SCT250
     FM281600 10010G15KT P6SM SCT040 BKN250=



000
FTUS42 KJAX 271737
TAFCRG
TAF
KCRG 271737Z 2718/2818 12010G16KT P6SM SCT035 BKN250
     FM272200 11008KT P6SM SCT035 SCT250
     FM280300 VRB02KT P6SM SCT015 SCT250
     FM281600 10010G15KT P6SM SCT040 BKN250=



000
FTUS42 KJAX 271120
TAFCRG
TAF
KCRG 271120Z 2712/2812 11005KT P6SM SCT020 SCT250
     FM271600 11010KT P6SM SCT035 SCT250
     FM280300 VRB02KT P6SM SCT015 SCT250=



000
FTUS42 KJAX 271120
TAFCRG
TAF
KCRG 271120Z 2712/2812 11005KT P6SM SCT020 SCT250
     FM271600 11010KT P6SM SCT035 SCT250
     FM280300 VRB02KT P6SM SCT015 SCT250=



000
FTUS42 KJAX 271120
TAFSSI
TAF
KSSI 271120Z 2712/2812 12006KT P6SM SCT020 SCT250
      TEMPO 2712/2715 BKN020
     FM271600 11012KT P6SM SCT030 SCT250
     FM280300 11004KT P6SM SCT015 SCT250=



000
FTUS42 KJAX 271120
TAFJAX
TAF
KJAX 271120Z 2712/2812 VRB05KT P6SM SCT020 SCT250
     FM271600 10010KT P6SM SCT035 SCT250
     FM280300 VRB02KT P6SM SCT015 SCT250=



000
FTUS42 KJAX 271120
TAFJAX
TAF
KJAX 271120Z 2712/2812 VRB05KT P6SM SCT020 SCT250
     FM271600 10010KT P6SM SCT035 SCT250
     FM280300 VRB02KT P6SM SCT015 SCT250=



000
FTUS42 KJAX 271120
TAFGNV
TAF
KGNV 271120Z 2712/2812 VRB02KT P6SM SCT020 SCT250
     FM271600 11008KT P6SM SCT040 SCT250
     FM280300 00000KT P6SM SCT015 SCT250=



000
FTUS42 KJAX 271120
TAFSSI
TAF
KSSI 271120Z 2712/2812 12006KT P6SM SCT020 SCT250
      TEMPO 2712/2715 BKN020
     FM271600 11012KT P6SM SCT030 SCT250
     FM280300 11004KT P6SM SCT015 SCT250=



000
FTUS42 KJAX 271120
TAFGNV
TAF
KGNV 271120Z 2712/2812 VRB02KT P6SM SCT020 SCT250
     FM271600 11008KT P6SM SCT040 SCT250
     FM280300 00000KT P6SM SCT015 SCT250=



000
FTUS42 KJAX 270617 AAA
TAFGNV
TAF AMD
KGNV 270617Z 2706/2806 VRB04KT P6SM VCSH SCT005 BKN050 BKN100
     FM270800 VRB02KT 6SM BR SCT005 SCT015
     FM271200 12004KT P6SM SCT020 SCT250
     FM271500 09008KT P6SM SCT040 SCT250=



000
FTUS42 KJAX 270520
TAFCRG
TAF
KCRG 270520Z 2706/2806 12004KT P6SM SCT015 SCT030 BKN060
     FM271500 11010KT P6SM SCT030 SCT250=



000
FTUS42 KJAX 270520
TAFGNV
TAF
KGNV 270520Z 2706/2806 VRB04KT P6SM VCSH SCT005 BKN050 BKN100
      TEMPO 2706/2708 BKN005
     FM270800 VRB02KT 6SM BR SCT005 SCT015
     FM271200 12004KT P6SM SCT020 SCT250
     FM271500 09008KT P6SM SCT040 SCT250=



000
FTUS42 KJAX 270520
TAFSSI
TAF
KSSI 270520Z 2706/2806 14004KT P6SM VCSH BKN020 BKN040
     FM271200 14006KT P6SM BKN015 BKN030
     FM271600 11010KT P6SM SCT025 SCT250=



000
FTUS42 KJAX 270520
TAFJAX
TAF
KJAX 270520Z 2706/2806 VRB04KT P6SM VCSH SCT015 BKN035 BKN060
     FM270900 VRB02KT 6SM BR SCT005 SCT015
     FM271200 12004KT P6SM SCT015 SCT250
     FM271600 10010KT P6SM SCT035 SCT250=



    US Dept of Commerce
    National Oceanic and Atmospheric Administration
    National Weather Service
    1325 East West Highway
    Silver Spring, MD 20910
    Page Author: NWS Internet Services Team
Disclaimer
Information Quality
Credits
Glossary
Privacy Policy
Freedom of Information Act (FOIA)
About Us
Career Opportunities